Time;durP1;ratioP1;P1;durP2;ratioP2;P2;SDS_P1;SDS_P2;PMS_P1;PMS_P2;Temp;Humidity;BMP_temperature;BMP_pressure;BME280_temperature;BME280_humidity;BME280_pressure;Samples;Min_cycle;Max_cycle;Signal;HPM_P1;HPM_P2
2023/06/10 00:01:47;;;;;;;77.35;55.15;;;22.60;64.00;;;;;;4948440;28;90808;-72
2023/06/10 00:04:16;;;;;;;79.63;55.53;;;22.60;63.40;;;;;;4955287;28;90019;-72
2023/06/10 00:06:43;;;;;;;78.30;55.58;;;22.60;64.20;;;;;;4936501;28;92686;-72
2023/06/10 00:09:10;;;;;;;79.57;55.05;;;22.60;63.70;;;;;;4955237;28;90319;-72
2023/06/10 00:11:36;;;;;;;77.88;55.65;;;22.50;64.20;;;;;;4957435;28;89593;-72
2023/06/10 00:14:02;;;;;;;76.47;54.72;;;22.50;64.10;;;;;;4960835;28;90124;-71
2023/06/10 00:16:28;;;;;;;77.78;55.67;;;22.50;64.10;;;;;;4953588;28;90190;-72
2023/06/10 00:19:00;;;;;;;76.65;55.42;;;22.50;64.20;;;;;;4951644;28;90949;-72
2023/06/10 00:21:37;;;;;;;77.65;55.25;;;22.40;64.30;;;;;;4951545;28;91184;-72
2023/06/10 00:24:05;;;;;;;77.22;55.05;;;22.40;64.90;;;;;;4961281;28;88835;-72
2023/06/10 00:26:31;;;;;;;77.10;55.45;;;22.40;65.20;;;;;;4962128;28;91417;-71
2023/06/10 00:28:56;;;;;;;77.13;55.35;;;22.40;64.90;;;;;;4958959;28;89858;-72
2023/06/10 00:31:22;;;;;;;78.82;55.17;;;22.30;65.40;;;;;;4956043;28;91516;-71
2023/06/10 00:33:47;;;;;;;77.53;55.33;;;22.30;65.50;;;;;;4955602;28;89471;-73
2023/06/10 00:36:13;;;;;;;77.50;55.05;;;22.30;65.90;;;;;;4958123;28;90986;-73
2023/06/10 00:38:40;;;;;;;77.35;55.33;;;22.30;66.30;;;;;;4941127;28;89922;-73
2023/06/10 00:41:06;;;;;;;78.38;55.45;;;22.30;66.50;;;;;;4956313;28;91391;-72
2023/06/10 00:43:32;;;;;;;77.30;55.47;;;22.20;66.10;;;;;;4953873;28;90355;-72
2023/06/10 00:45:58;;;;;;;76.50;55.00;;;22.20;66.30;;;;;;4948922;28;90267;-72
2023/06/10 00:48:24;;;;;;;78.68;55.22;;;22.20;66.70;;;;;;4935333;28;91960;-72
2023/06/10 00:50:50;;;;;;;77.07;54.90;;;22.20;66.40;;;;;;4958316;28;92375;-70
2023/06/10 00:53:16;;;;;;;76.85;55.30;;;22.20;66.70;;;;;;4958388;28;89530;-74
2023/06/10 00:55:42;;;;;;;76.43;55.20;;;22.20;66.80;;;;;;4954796;28;91143;-72
2023/06/10 00:58:08;;;;;;;76.40;55.05;;;22.20;66.80;;;;;;4953945;28;90686;-72
2023/06/10 01:00:34;;;;;;;77.13;55.45;;;22.20;66.50;;;;;;4945154;28;89528;-72
2023/06/10 01:03:00;;;;;;;77.63;54.95;;;22.20;66.80;;;;;;4935412;28;89472;-71
2023/06/10 01:05:27;;;;;;;77.43;55.28;;;22.20;66.80;;;;;;4952372;28;89703;-71
2023/06/10 01:08:02;;;;;;;77.68;55.00;;;22.10;66.80;;;;;;4957931;28;89537;-73
2023/06/10 01:10:35;;;;;;;76.60;54.97;;;22.10;66.30;;;;;;4949743;28;91294;-72
2023/06/10 01:13:02;;;;;;;79.07;54.53;;;22.10;67.00;;;;;;4950937;28;89809;-72
2023/06/10 01:15:31;;;;;;;78.03;55.38;;;22.10;66.30;;;;;;4954055;28;89717;-72
2023/06/10 01:17:58;;;;;;;77.88;55.13;;;22.10;67.00;;;;;;4940763;28;90744;-73
2023/06/10 01:20:29;;;;;;;77.15;55.17;;;22.10;66.90;;;;;;4949547;28;91171;-73
2023/06/10 01:22:56;;;;;;;77.60;55.33;;;22.10;66.80;;;;;;4958148;28;89532;-72
2023/06/10 01:25:27;;;;;;;79.10;55.45;;;22.10;67.10;;;;;;4956764;28;90505;-72
2023/06/10 01:27:57;;;;;;;78.32;55.22;;;22.10;67.10;;;;;;4957670;28;89727;-72
2023/06/10 01:30:29;;;;;;;76.25;54.85;;;22.10;67.10;;;;;;4959389;28;89983;-73
2023/06/10 01:32:57;;;;;;;77.20;55.03;;;22.10;66.90;;;;;;4959194;28;89567;-73
2023/06/10 01:35:26;;;;;;;75.85;54.92;;;22.00;67.20;;;;;;4953433;28;90073;-73
2023/06/10 01:37:54;;;;;;;76.85;55.63;;;22.00;67.00;;;;;;4957964;28;88816;-71
2023/06/10 01:40:20;;;;;;;76.35;55.05;;;22.00;67.20;;;;;;4957420;28;90006;-72
2023/06/10 01:42:46;;;;;;;77.78;55.13;;;22.00;66.90;;;;;;4957488;28;90135;-71
2023/06/10 01:45:12;;;;;;;77.28;55.25;;;22.00;67.10;;;;;;4954208;28;91055;-72
2023/06/10 01:47:37;;;;;;;77.38;54.97;;;22.00;67.40;;;;;;4952574;28;91054;-72
2023/06/10 01:50:03;;;;;;;76.10;55.13;;;22.00;67.10;;;;;;4938526;28;89671;-71
2023/06/10 01:52:29;;;;;;;77.93;54.90;;;22.00;67.80;;;;;;4954222;28;89948;-73
2023/06/10 01:54:55;;;;;;;75.85;54.80;;;21.90;66.50;;;;;;4951349;28;90869;-72
2023/06/10 01:57:20;;;;;;;76.53;55.15;;;21.90;66.90;;;;;;4947902;28;90433;-72
2023/06/10 01:59:46;;;;;;;76.95;55.38;;;21.90;67.20;;;;;;4961610;28;90230;-74
2023/06/10 02:02:12;;;;;;;76.47;55.03;;;21.90;67.90;;;;;;4960096;28;89035;-72
2023/06/10 02:04:38;;;;;;;79.03;55.58;;;21.90;67.60;;;;;;4956412;28;90021;-73
2023/06/10 02:07:04;;;;;;;79.63;55.13;;;21.90;67.30;;;;;;4960598;28;90072;-71
2023/06/10 02:09:30;;;;;;;83.15;55.08;;;21.90;67.70;;;;;;4942381;28;90530;-73
2023/06/10 02:11:57;;;;;;;78.68;55.00;;;21.90;68.40;;;;;;4964027;28;89492;-72
2023/06/10 02:14:22;;;;;;;80.53;54.90;;;21.90;68.10;;;;;;4953593;28;91504;-72
2023/06/10 02:16:48;;;;;;;90.72;55.35;;;21.80;68.20;;;;;;4963837;28;91207;-73
2023/06/10 02:19:14;;;;;;;80.95;55.67;;;21.80;68.80;;;;;;4943559;28;89976;-72
2023/06/10 02:21:39;;;;;;;78.70;55.15;;;21.80;68.40;;;;;;4962121;28;89478;-72
2023/06/10 02:24:05;;;;;;;78.18;55.13;;;21.80;68.20;;;;;;4964071;28;90729;-72
2023/06/10 02:26:31;;;;;;;77.03;54.92;;;21.80;68.80;;;;;;4961819;28;88962;-72
2023/06/10 02:28:57;;;;;;;77.68;54.92;;;21.70;68.30;;;;;;4957645;28;89471;-71
2023/06/10 02:31:24;;;;;;;76.18;54.88;;;21.70;68.20;;;;;;4942149;28;90164;-73
2023/06/10 02:33:49;;;;;;;78.43;54.92;;;21.70;68.10;;;;;;4954547;28;91202;-72
2023/06/10 02:36:15;;;;;;;76.32;55.20;;;21.70;68.20;;;;;;4966087;28;89906;-72
2023/06/10 02:38:41;;;;;;;78.05;55.25;;;21.70;68.10;;;;;;4943271;28;90642;-72
2023/06/10 02:41:07;;;;;;;77.00;54.78;;;21.70;68.30;;;;;;4963917;28;89654;-72
2023/06/10 02:43:33;;;;;;;77.22;55.40;;;21.70;68.60;;;;;;4960094;28;91363;-73
2023/06/10 02:45:59;;;;;;;76.57;55.08;;;21.60;68.80;;;;;;4960246;28;90237;-72
2023/06/10 02:48:24;;;;;;;78.97;55.25;;;21.60;69.00;;;;;;4964246;28;89757;-70
2023/06/10 02:50:50;;;;;;;76.55;55.00;;;21.60;68.90;;;;;;4959736;28;88963;-71
2023/06/10 02:53:16;;;;;;;76.55;55.38;;;21.60;68.60;;;;;;4960805;28;89524;-72
2023/06/10 02:55:42;;;;;;;79.53;55.25;;;21.60;68.90;;;;;;4946851;28;90362;-71
2023/06/10 02:58:08;;;;;;;77.78;55.30;;;21.60;68.90;;;;;;4952228;28;91018;-72
2023/06/10 03:00:34;;;;;;;76.10;55.13;;;21.50;69.10;;;;;;4956404;28;91952;-71
2023/06/10 03:03:03;;;;;;;77.22;54.90;;;21.50;69.10;;;;;;4960664;28;89566;-72
2023/06/10 03:05:29;;;;;;;77.07;55.05;;;21.50;69.40;;;;;;4939709;28;90079;-73
2023/06/10 03:07:55;;;;;;;77.18;54.92;;;21.50;69.20;;;;;;4958982;28;89880;-72
2023/06/10 03:10:20;;;;;;;76.80;54.90;;;21.50;69.00;;;;;;4959619;28;90277;-72
2023/06/10 03:12:46;;;;;;;77.75;54.90;;;21.40;69.20;;;;;;4955763;28;90060;-73
2023/06/10 03:15:12;;;;;;;75.65;54.97;;;21.40;70.10;;;;;;4959502;28;88889;-71
2023/06/10 03:17:38;;;;;;;75.65;54.75;;;21.40;69.50;;;;;;4957391;28;89698;-71
2023/06/10 03:20:08;;;;;;;77.82;55.25;;;21.40;69.80;;;;;;4939160;28;89905;-72
2023/06/10 03:22:33;;;;;;;75.78;55.13;;;21.40;70.30;;;;;;4958519;28;90696;-69
2023/06/10 03:24:59;;;;;;;77.53;55.35;;;21.40;69.80;;;;;;4952197;28;94708;-71
2023/06/10 03:27:25;;;;;;;75.75;54.67;;;21.40;71.40;;;;;;4954227;28;90088;-72
2023/06/10 03:29:51;;;;;;;76.30;55.15;;;21.40;69.90;;;;;;4954993;28;89589;-70
2023/06/10 03:32:17;;;;;;;75.70;54.97;;;21.40;70.10;;;;;;4963813;28;90903;-71
2023/06/10 03:34:44;;;;;;;76.70;55.20;;;21.30;70.30;;;;;;4959662;28;91745;-72
2023/06/10 03:37:10;;;;;;;76.18;54.90;;;21.30;70.00;;;;;;4958162;28;89601;-72
2023/06/10 03:39:36;;;;;;;77.03;54.85;;;21.30;70.60;;;;;;4957133;28;89436;-70
2023/06/10 03:42:02;;;;;;;77.45;54.65;;;21.30;70.60;;;;;;4955727;28;89868;-71
2023/06/10 03:44:28;;;;;;;74.95;54.85;;;21.30;70.80;;;;;;4958509;28;89544;-70
2023/06/10 03:46:56;;;;;;;76.45;55.08;;;21.30;70.60;;;;;;4945087;28;94255;-71
2023/06/10 03:49:26;;;;;;;79.82;54.90;;;21.30;70.60;;;;;;4947100;28;90678;-72
2023/06/10 03:51:52;;;;;;;75.93;54.83;;;21.30;70.70;;;;;;4950811;28;96015;-71
2023/06/10 03:54:18;;;;;;;75.13;54.50;;;21.20;70.70;;;;;;4959438;28;90340;-72
2023/06/10 03:56:44;;;;;;;77.13;54.85;;;21.20;70.70;;;;;;4955339;28;91004;-72
2023/06/10 03:59:10;;;;;;;78.60;54.78;;;21.20;71.00;;;;;;4962345;28;89479;-71
2023/06/10 04:01:37;;;;;;;75.82;54.67;;;21.20;70.80;;;;;;4935513;28;91062;-72
2023/06/10 04:04:04;;;;;;;80.07;55.20;;;21.20;70.60;;;;;;4958974;28;89136;-72
2023/06/10 04:06:30;;;;;;;76.97;54.88;;;21.20;71.20;;;;;;4954220;28;89766;-72
2023/06/10 04:08:59;;;;;;;78.15;55.38;;;21.20;70.60;;;;;;4964785;28;91007;-72
2023/06/10 04:11:25;;;;;;;76.43;55.30;;;21.30;70.90;;;;;;4957308;28;91382;-72
2023/06/10 04:13:51;;;;;;;78.78;55.38;;;21.30;71.10;;;;;;4957984;28;90125;-71
2023/06/10 04:16:16;;;;;;;76.82;55.20;;;21.40;71.20;;;;;;4957330;28;89554;-74
2023/06/10 04:18:42;;;;;;;76.18;55.15;;;21.40;70.10;;;;;;4938011;28;90142;-72
2023/06/10 04:21:08;;;;;;;76.22;55.03;;;21.30;70.40;;;;;;4960504;28;90208;-72
2023/06/10 04:23:36;;;;;;;75.78;54.95;;;21.40;69.70;;;;;;4941550;28;89755;-72
2023/06/10 04:26:02;;;;;;;77.70;55.15;;;21.40;70.50;;;;;;4955052;28;89486;-73
2023/06/10 04:28:28;;;;;;;76.80;54.95;;;21.40;69.70;;;;;;4953205;28;89275;-72
2023/06/10 04:30:53;;;;;;;76.68;55.22;;;21.40;70.40;;;;;;4951766;28;90310;-73
2023/06/10 04:33:19;;;;;;;75.80;54.78;;;21.50;70.00;;;;;;4955299;28;89451;-72
2023/06/10 04:35:47;;;;;;;77.38;55.53;;;21.60;70.00;;;;;;4934277;28;90958;-72
2023/06/10 04:38:13;;;;;;;77.57;56.13;;;21.60;67.30;;;;;;4949619;28;89572;-72
2023/06/10 04:40:40;;;;;;;78.57;56.85;;;21.90;65.00;;;;;;4932555;28;92115;-72
2023/06/10 04:43:05;;;;;;;80.28;56.70;;;22.00;60.60;;;;;;4959473;28;89788;-72
2023/06/10 04:45:31;;;;;;;78.18;56.58;;;22.10;59.90;;;;;;4962275;28;90239;-72
2023/06/10 04:47:57;;;;;;;79.78;56.40;;;22.10;59.30;;;;;;4958410;28;90251;-71
2023/06/10 04:50:24;;;;;;;81.82;56.60;;;22.10;59.40;;;;;;4959453;28;89232;-71
2023/06/10 04:52:49;;;;;;;80.00;57.33;;;22.00;59.30;;;;;;4937801;28;91566;-73
2023/06/10 04:55:16;;;;;;;77.43;56.08;;;21.90;60.30;;;;;;4927873;28;90434;-73
2023/06/10 04:57:41;;;;;;;80.38;57.03;;;21.90;59.60;;;;;;4947393;28;94342;-70
2023/06/10 05:00:08;;;;;;;77.82;56.55;;;22.00;59.00;;;;;;4948654;28;91434;-73
2023/06/10 05:02:34;;;;;;;80.40;57.47;;;22.10;59.10;;;;;;4950123;28;91657;-71
2023/06/10 05:05:00;;;;;;;80.22;57.35;;;22.00;59.90;;;;;;4941247;28;90293;-72
2023/06/10 05:07:26;;;;;;;82.68;57.00;;;22.00;60.70;;;;;;4929914;28;90896;-72
2023/06/10 05:09:51;;;;;;;79.47;56.80;;;22.00;59.50;;;;;;4947216;28;90266;-73
2023/06/10 05:12:17;;;;;;;83.10;56.88;;;22.00;59.30;;;;;;4949176;28;90242;-70
2023/06/10 05:14:44;;;;;;;77.80;56.15;;;22.10;59.40;;;;;;4952101;28;89906;-71
2023/06/10 05:17:10;;;;;;;80.93;57.22;;;22.10;59.10;;;;;;4950872;28;91016;-71
2023/06/10 05:19:37;;;;;;;79.60;57.20;;;22.20;59.40;;;;;;4947795;28;89837;-72
2023/06/10 05:22:03;;;;;;;81.43;57.15;;;22.20;59.20;;;;;;4951539;28;89520;-72
2023/06/10 05:24:28;;;;;;;79.20;57.13;;;22.20;59.50;;;;;;4955686;28;91148;-70
2023/06/10 05:26:54;;;;;;;78.32;57.17;;;22.30;58.60;;;;;;4953329;28;90666;-70
2023/06/10 05:29:20;;;;;;;78.03;56.72;;;22.30;58.60;;;;;;4944508;28;91070;-71
2023/06/10 05:31:45;;;;;;;80.53;57.15;;;22.30;59.50;;;;;;4955989;28;89665;-72
2023/06/10 05:34:11;;;;;;;79.47;57.13;;;22.40;59.40;;;;;;4959214;28;89778;-71
2023/06/10 05:36:37;;;;;;;78.18;57.17;;;22.40;58.50;;;;;;4957541;28;89453;-72
2023/06/10 05:39:03;;;;;;;79.75;57.30;;;22.40;59.10;;;;;;4952761;28;89517;-72
2023/06/10 05:41:29;;;;;;;79.35;57.35;;;22.40;59.10;;;;;;4959795;28;90031;-72
2023/06/10 05:43:54;;;;;;;80.03;57.70;;;22.40;60.10;;;;;;4956138;28;89466;-72
2023/06/10 05:46:20;;;;;;;84.13;58.50;;;22.50;58.90;;;;;;4959257;28;90604;-72
2023/06/10 05:48:46;;;;;;;79.07;57.42;;;22.50;59.20;;;;;;4957632;28;91213;-73
2023/06/10 05:51:11;;;;;;;80.70;58.05;;;22.60;58.60;;;;;;4954756;28;91208;-72
2023/06/10 05:53:38;;;;;;;81.50;58.10;;;22.50;58.30;;;;;;4956790;28;89514;-73
2023/06/10 05:56:04;;;;;;;80.15;57.15;;;22.60;58.70;;;;;;4937979;28;91299;-70
2023/06/10 05:58:30;;;;;;;83.80;57.50;;;22.60;58.60;;;;;;4951547;28;90932;-72
2023/06/10 06:00:55;;;;;;;78.68;57.65;;;22.70;58.20;;;;;;4945000;28;90450;-73
2023/06/10 06:03:21;;;;;;;81.93;57.42;;;22.70;59.30;;;;;;4952410;28;90196;-72
2023/06/10 06:05:47;;;;;;;79.72;57.88;;;22.70;58.80;;;;;;4951298;28;88881;-72
2023/06/10 06:08:18;;;;;;;81.55;57.53;;;22.70;59.80;;;;;;4941002;28;90267;-72
2023/06/10 06:10:45;;;;;;;82.00;57.38;;;22.70;58.90;;;;;;4958015;28;91041;-70
2023/06/10 06:13:11;;;;;;;83.53;58.40;;;22.80;58.50;;;;;;4938721;28;90541;-72
2023/06/10 06:15:36;;;;;;;79.30;57.50;;;22.80;58.20;;;;;;4958899;28;89379;-72
2023/06/10 06:18:02;;;;;;;81.20;57.30;;;22.80;59.10;;;;;;4935177;28;91469;-71
2023/06/10 06:20:28;;;;;;;79.40;57.75;;;22.80;58.20;;;;;;4958055;28;89795;-72
2023/06/10 06:22:54;;;;;;;79.88;57.17;;;22.80;58.90;;;;;;4955420;28;89825;-71
2023/06/10 06:25:19;;;;;;;81.95;58.30;;;22.80;58.50;;;;;;4952104;28;91168;-72
2023/06/10 06:27:45;;;;;;;82.28;57.78;;;22.90;58.80;;;;;;4957291;28;89810;-72
2023/06/10 06:30:11;;;;;;;82.28;57.53;;;22.90;59.10;;;;;;4951699;28;89933;-70
2023/06/10 06:32:37;;;;;;;80.05;57.60;;;22.90;58.80;;;;;;4948657;28;90190;-73
2023/06/10 06:35:05;;;;;;;83.65;57.42;;;23.00;59.00;;;;;;4953425;28;89465;-73
2023/06/10 06:37:31;;;;;;;81.22;57.28;;;23.00;58.40;;;;;;4956994;28;92412;-74
2023/06/10 06:39:58;;;;;;;79.18;57.35;;;23.00;58.90;;;;;;4957130;28;90149;-72
2023/06/10 06:42:23;;;;;;;82.07;57.50;;;23.10;58.80;;;;;;4954502;28;89664;-72
2023/06/10 06:44:49;;;;;;;83.00;57.85;;;23.10;58.30;;;;;;4954105;28;89913;-75
2023/06/10 06:47:17;;;;;;;79.43;57.47;;;23.20;58.10;;;;;;4952260;28;89075;-74
2023/06/10 06:49:43;;;;;;;81.43;57.80;;;23.20;58.40;;;;;;4955023;28;91787;-75
2023/06/10 06:52:08;;;;;;;81.15;57.75;;;23.20;57.80;;;;;;4950155;28;89426;-73
2023/06/10 06:54:34;;;;;;;79.68;57.70;;;23.30;58.10;;;;;;4955816;28;89548;-73
2023/06/10 06:57:00;;;;;;;82.70;57.85;;;23.30;58.10;;;;;;4955375;28;89294;-74
2023/06/10 06:59:26;;;;;;;79.68;57.95;;;23.30;57.70;;;;;;4956135;28;89332;-75
2023/06/10 07:01:53;;;;;;;81.50;57.72;;;23.40;57.80;;;;;;4953412;28;90689;-73
2023/06/10 07:04:21;;;;;;;83.40;57.80;;;23.40;58.10;;;;;;4936977;28;89559;-73
2023/06/10 07:06:47;;;;;;;83.65;58.20;;;23.40;58.20;;;;;;4949149;28;89884;-73
2023/06/10 07:09:13;;;;;;;82.40;57.72;;;23.50;57.90;;;;;;4945918;28;94060;-74
2023/06/10 07:11:39;;;;;;;81.38;57.40;;;23.50;58.00;;;;;;4956086;28;90416;-73
2023/06/10 07:14:06;;;;;;;82.25;57.83;;;23.60;58.10;;;;;;4957614;28;90357;-73
2023/06/10 07:16:32;;;;;;;81.30;57.97;;;23.60;57.30;;;;;;4948460;28;91964;-73
2023/06/10 07:18:57;;;;;;;80.07;57.30;;;23.70;57.40;;;;;;4951008;28;88890;-73
2023/06/10 07:21:23;;;;;;;84.78;58.05;;;23.70;57.10;;;;;;4934485;28;89367;-73
2023/06/10 07:23:52;;;;;;;84.78;58.10;;;23.70;57.20;;;;;;4958968;28;89045;-75
2023/06/10 07:26:17;;;;;;;88.40;57.70;;;23.80;56.80;;;;;;4949433;28;93101;-75
2023/06/10 07:28:43;;;;;;;81.85;57.92;;;23.80;57.00;;;;;;4963195;28;90169;-75
2023/06/10 07:31:09;;;;;;;84.15;58.33;;;23.80;57.10;;;;;;4952500;28;89674;-73
2023/06/10 07:33:36;;;;;;;82.72;57.92;;;23.80;57.00;;;;;;4937179;28;88777;-73
2023/06/10 07:36:02;;;;;;;85.63;58.53;;;23.80;57.70;;;;;;4957858;28;89518;-74
2023/06/10 07:38:28;;;;;;;86.70;57.90;;;23.90;57.20;;;;;;4954491;28;89515;-74
2023/06/10 07:40:53;;;;;;;82.43;58.38;;;23.90;57.50;;;;;;4938228;28;90028;-74
2023/06/10 07:43:19;;;;;;;83.10;57.65;;;24.00;57.40;;;;;;4953832;28;93788;-73
2023/06/10 07:45:45;;;;;;;86.28;58.40;;;24.00;57.00;;;;;;4955682;28;90110;-72
2023/06/10 07:48:10;;;;;;;84.90;58.10;;;24.00;56.50;;;;;;4949677;28;89639;-73
2023/06/10 07:50:36;;;;;;;82.82;58.13;;;24.10;56.50;;;;;;4936893;28;90695;-73
2023/06/10 07:53:02;;;;;;;82.78;57.67;;;24.10;57.00;;;;;;4950881;28;89565;-73
2023/06/10 07:55:28;;;;;;;83.13;58.05;;;24.20;57.00;;;;;;4949298;28;90600;-72
2023/06/10 07:57:54;;;;;;;82.45;58.03;;;24.20;56.30;;;;;;4955541;28;89658;-73
2023/06/10 08:00:20;;;;;;;82.43;58.42;;;24.20;56.90;;;;;;4951175;28;90059;-71
2023/06/10 08:02:47;;;;;;;93.55;59.10;;;24.30;56.50;;;;;;4961469;28;89496;-73
2023/06/10 08:05:12;;;;;;;84.95;58.83;;;24.30;57.00;;;;;;4956692;28;89460;-73
2023/06/10 08:07:41;;;;;;;81.97;58.45;;;24.30;56.80;;;;;;4956352;28;88755;-72
2023/06/10 08:10:07;;;;;;;84.30;58.55;;;24.40;56.50;;;;;;4955609;28;90169;-70
2023/06/10 08:12:33;;;;;;;84.65;58.92;;;24.40;56.70;;;;;;4956072;28;89542;-75
2023/06/10 08:14:59;;;;;;;82.72;58.80;;;24.40;56.30;;;;;;4954400;28;90294;-72
2023/06/10 08:17:25;;;;;;;87.63;59.22;;;24.40;56.70;;;;;;4955832;28;89623;-73
2023/06/10 08:19:52;;;;;;;89.03;59.20;;;24.30;57.40;;;;;;4964248;28;90574;-70
2023/06/10 08:22:18;;;;;;;89.65;60.10;;;24.20;58.20;;;;;;4961410;28;89264;-70
2023/06/10 08:24:44;;;;;;;88.38;60.63;;;24.20;58.30;;;;;;4930027;28;89563;-71
2023/06/10 08:27:10;;;;;;;88.38;59.60;;;24.20;58.60;;;;;;4953853;22;90881;-53
2023/06/10 08:29:35;;;;;;;87.25;59.53;;;24.20;58.70;;;;;;4935383;28;90882;-48
2023/06/10 08:32:01;;;;;;;85.57;59.65;;;24.20;58.60;;;;;;4938566;28;89352;-46
2023/06/10 08:34:27;;;;;;;86.65;59.17;;;24.30;58.50;;;;;;4938958;28;89538;-46
2023/06/10 08:36:55;;;;;;;86.13;58.92;;;24.30;58.60;;;;;;4935545;28;90816;-47
2023/06/10 08:39:22;;;;;;;84.05;59.00;;;24.30;58.40;;;;;;4931810;28;90368;-47
2023/06/10 08:42:00;;;;;;;84.82;59.03;;;24.30;58.30;;;;;;4939750;28;90603;-48
2023/06/10 08:44:30;;;;;;;85.25;58.72;;;24.30;58.20;;;;;;4932386;28;90434;-46
2023/06/10 08:47:15;;;;;;;84.60;57.90;;;24.30;57.90;;;;;;4936729;28;89916;-42
2023/06/10 08:49:45;;;;;;;87.03;59.50;;;24.40;58.20;;;;;;4940371;28;89878;-42
2023/06/10 08:52:18;;;;;;;85.78;58.45;;;24.40;58.20;;;;;;4936587;28;89727;-43
2023/06/10 08:54:47;;;;;;;83.53;58.58;;;24.40;58.00;;;;;;4942767;28;90195;-43
2023/06/10 08:57:15;;;;;;;87.28;58.58;;;24.50;58.30;;;;;;4934119;28;90389;-42
2023/06/10 08:59:41;;;;;;;84.97;58.92;;;24.40;58.20;;;;;;4939987;28;89534;-41
2023/06/10 09:02:08;;;;;;;83.13;58.78;;;24.50;58.00;;;;;;4938667;28;89739;-42
2023/06/10 09:04:36;;;;;;;83.22;58.38;;;24.50;57.90;;;;;;4938194;28;91212;-43
2023/06/10 09:07:03;;;;;;;85.82;58.72;;;24.50;57.70;;;;;;4940662;28;90089;-41
2023/06/10 09:09:32;;;;;;;84.40;58.15;;;24.50;56.80;;;;;;4935931;28;89592;-43
2023/06/10 09:11:58;;;;;;;83.60;58.50;;;24.50;56.20;;;;;;4942748;28;91865;-42
2023/06/10 09:14:24;;;;;;;83.13;58.53;;;24.60;56.40;;;;;;4934150;28;90878;-43
2023/06/10 09:16:49;;;;;;;83.50;58.67;;;24.60;56.20;;;;;;4940498;28;89636;-44
2023/06/10 09:19:16;;;;;;;84.35;58.30;;;24.60;56.30;;;;;;4937358;28;90295;-43
2023/06/10 09:21:42;;;;;;;85.78;58.75;;;24.70;56.40;;;;;;4934568;28;88816;-43
2023/06/10 09:24:08;;;;;;;84.03;58.08;;;24.70;56.40;;;;;;4939755;28;90058;-43
2023/06/10 09:26:34;;;;;;;84.10;58.53;;;24.70;56.40;;;;;;4941677;28;89592;-44
2023/06/10 09:29:05;;;;;;;81.50;58.53;;;24.70;56.50;;;;;;4940865;28;90467;-42
2023/06/10 09:31:31;;;;;;;;;;;24.70;56.40;;;;;;4937493;28;89549;-43
2023/06/10 09:34:14;;;;;;;84.45;58.33;;;24.80;56.40;;;;;;4937777;28;92158;-44
2023/06/10 09:36:40;;;;;;;86.60;58.80;;;24.80;56.30;;;;;;4934938;28;89532;-42
2023/06/10 09:39:17;;;;;;;82.05;58.42;;;24.80;56.20;;;;;;4933259;28;90040;-43
2023/06/10 09:41:44;;;;;;;83.35;58.22;;;24.80;56.30;;;;;;4938356;28;89472;-44
2023/06/10 09:44:21;;;;;;;83.03;58.60;;;24.90;56.30;;;;;;4932596;28;90490;-43
2023/06/10 09:46:50;;;;;;;83.57;58.63;;;24.90;56.30;;;;;;4933483;28;89650;-44
2023/06/10 09:49:19;;;;;;;84.30;58.22;;;24.90;56.40;;;;;;4939611;28;89559;-43
2023/06/10 09:51:51;;;;;;;85.65;58.80;;;24.90;56.50;;;;;;4935498;28;89543;-42
2023/06/10 09:54:18;;;;;;;82.78;58.53;;;24.90;56.30;;;;;;4934532;28;90485;-42
2023/06/10 09:56:47;;;;;;;85.15;58.83;;;24.90;56.30;;;;;;4937879;28;89658;-49
2023/06/10 09:59:13;;;;;;;83.30;58.65;;;25.00;56.20;;;;;;4938866;28;90305;-48
2023/06/10 10:01:38;;;;;;;81.38;58.08;;;25.00;56.20;;;;;;4938510;28;89962;-48
2023/06/10 10:04:04;;;;;;;83.60;58.28;;;25.00;56.00;;;;;;4936693;28;89418;-48
2023/06/10 10:06:30;;;;;;;82.47;58.38;;;25.00;55.90;;;;;;4937465;28;90210;-49
2023/06/10 10:08:56;;;;;;;82.10;58.08;;;25.10;55.90;;;;;;4936382;28;89337;-50
2023/06/10 10:11:22;;;;;;;83.80;58.58;;;25.10;55.80;;;;;;4936696;28;88569;-47
2023/06/10 10:13:50;;;;;;;84.57;58.75;;;25.10;55.70;;;;;;4936655;28;89260;-47
2023/06/10 10:16:33;;;;;;;83.00;58.22;;;25.10;55.70;;;;;;4939742;28;90826;-46
2023/06/10 10:19:07;;;;;;;83.43;57.95;;;25.20;55.60;;;;;;4933756;28;90366;-47
2023/06/10 10:21:46;;;;;;;83.70;58.42;;;25.20;55.40;;;;;;4937346;28;90720;-52
2023/06/10 10:24:21;;;;;;;82.15;58.33;;;25.20;55.20;;;;;;4940612;28;92458;-46
2023/06/10 10:26:49;;;;;;;82.97;57.97;;;25.20;55.10;;;;;;4936120;28;94542;-49
2023/06/10 10:29:30;;;;;;;82.07;58.30;;;25.20;54.80;;;;;;4941602;28;90900;-49
2023/06/10 10:32:00;;;;;;;81.72;57.78;;;25.30;54.70;;;;;;4941738;28;89168;-49
2023/06/10 10:34:43;;;;;;;81.85;58.15;;;25.20;54.40;;;;;;4936566;28;89997;-49
2023/06/10 10:37:08;;;;;;;82.57;57.80;;;25.30;54.40;;;;;;4937975;28;88770;-51
2023/06/10 10:39:35;;;;;;;81.75;57.70;;;25.30;54.40;;;;;;4936361;28;90873;-46
2023/06/10 10:42:03;;;;;;;81.22;57.67;;;25.30;54.80;;;;;;4939429;28;90569;-48
2023/06/10 10:44:29;;;;;;;82.35;57.85;;;25.40;54.50;;;;;;4939838;28;92119;-51
2023/06/10 10:46:56;;;;;;;81.85;57.80;;;25.40;54.40;;;;;;4942548;28;91446;-52
2023/06/10 10:49:24;;;;;;;82.68;58.08;;;25.40;54.30;;;;;;4936977;28;90708;-47
2023/06/10 10:52:01;;;;;;;82.68;57.60;;;25.40;54.10;;;;;;4937601;28;89787;-47
2023/06/10 10:54:35;;;;;;;81.63;57.63;;;25.40;53.90;;;;;;4936406;28;91489;-50
2023/06/10 10:57:16;;;;;;;81.22;57.40;;;25.40;53.70;;;;;;4936388;28;95134;-48
2023/06/10 10:59:56;;;;;;;84.80;57.78;;;25.50;54.00;;;;;;4941179;28;90667;-47
2023/06/10 11:02:42;;;;;;;82.22;57.72;;;25.50;54.20;;;;;;4941043;28;89614;-46
2023/06/10 11:05:09;;;;;;;82.05;57.78;;;25.50;54.10;;;;;;4936328;28;90296;-50
2023/06/10 11:07:36;;;;;;;80.75;57.70;;;25.50;54.20;;;;;;4940520;28;90010;-50
2023/06/10 11:10:09;;;;;;;82.80;57.90;;;25.60;54.10;;;;;;4938154;28;91439;-48
2023/06/10 11:12:54;;;;;;;83.28;58.00;;;25.60;54.40;;;;;;4940833;28;89965;-49
2023/06/10 11:15:28;;;;;;;81.95;57.83;;;25.60;54.40;;;;;;4937839;28;89898;-50
2023/06/10 11:18:25;;;;;;;82.00;57.53;;;25.60;54.50;;;;;;4934166;28;89942;-49
2023/06/10 11:21:02;;;;;;;84.65;57.45;;;25.60;54.10;;;;;;4934282;28;91307;-50
2023/06/10 11:23:27;;;;;;;81.15;57.33;;;25.60;54.00;;;;;;4937914;28;89706;-49
2023/06/10 11:26:11;;;;;;;81.05;57.30;;;25.70;53.90;;;;;;4940422;28;90134;-48
2023/06/10 11:28:38;;;;;;;82.03;57.47;;;25.70;53.80;;;;;;4930341;28;89819;-48
2023/06/10 11:31:03;;;;;;;81.75;57.38;;;25.70;54.30;;;;;;4928851;28;90149;-46
2023/06/10 11:33:30;;;;;;;83.72;57.47;;;25.70;54.10;;;;;;4932650;28;89499;-47
2023/06/10 11:35:56;;;;;;;84.35;57.47;;;25.70;53.40;;;;;;4922739;28;90884;-45
2023/06/10 11:38:21;;;;;;;82.70;57.33;;;25.80;53.10;;;;;;4929676;28;91080;-48
2023/06/10 11:40:51;;;;;;;81.25;57.50;;;25.70;52.20;;;;;;4934042;28;90210;-46
2023/06/10 11:43:20;;;;;;;81.50;57.42;;;25.80;52.90;;;;;;4926371;28;92354;-48
2023/06/10 11:45:46;;;;;;;86.32;59.22;;;25.80;53.40;;;;;;4930129;28;90499;-49
2023/06/10 11:48:13;;;;;;;103.00;62.92;;;25.80;53.80;;;;;;4924894;28;91530;-49
2023/06/10 11:50:41;;;;;;;112.40;65.65;;;25.80;55.80;;;;;;4927551;28;91779;-50
2023/06/10 11:53:08;;;;;;;113.95;66.47;;;25.90;57.50;;;;;;4922905;28;89398;-46
2023/06/10 11:55:48;;;;;;;100.72;62.53;;;25.90;58.10;;;;;;4931069;28;91230;-46
2023/06/10 11:58:16;;;;;;;100.30;61.20;;;26.00;56.20;;;;;;4928674;28;94227;-49
2023/06/10 12:01:01;;;;;;;93.20;59.45;;;26.00;56.00;;;;;;4912016;28;92185;-44
2023/06/10 12:03:35;;;;;;;91.28;59.33;;;26.00;55.10;;;;;;4930289;28;89547;-48
2023/06/10 12:06:05;;;;;;;85.00;58.40;;;26.00;54.10;;;;;;4921081;28;90165;-46
2023/06/10 12:08:32;;;;;;;86.10;58.58;;;26.10;53.00;;;;;;4931176;28;91846;-46
2023/06/10 12:10:58;;;;;;;86.28;58.20;;;26.10;53.30;;;;;;4934896;28;89831;-48
2023/06/10 12:13:27;;;;;;;85.10;58.83;;;26.10;53.00;;;;;;4916478;28;90827;-49
2023/06/10 12:15:54;;;;;;;86.97;58.63;;;26.20;53.00;;;;;;4921704;28;90093;-46
2023/06/10 12:18:24;;;;;;;85.10;58.40;;;26.20;53.10;;;;;;4910224;28;89944;-48
2023/06/10 12:20:50;;;;;;;86.72;58.45;;;26.30;53.20;;;;;;4918770;28;89455;-48
2023/06/10 12:23:18;;;;;;;85.90;58.45;;;26.30;53.30;;;;;;4926948;28;90605;-52
2023/06/10 12:25:55;;;;;;;86.38;58.33;;;26.30;53.10;;;;;;4926076;28;90508;-49
2023/06/10 12:28:24;;;;;;;86.00;58.35;;;26.30;52.90;;;;;;4882314;28;1196454;-50
2023/06/10 12:30:51;;;;;;;83.55;58.33;;;26.30;53.10;;;;;;4926674;28;91957;-49